Total Records : 58546    Days : 2610    Home  | Null  |   Close  

DNA Weather Station System

(Weather Station data from July 2017, rainfall from 2014)            Station location  |  Station pictures

Year:     Month:      Season: 
Dates Between:   to  
  Summary graph          Stress table
Date & Time Temp. Low Temp Hi Temp Humidity Dew Point Wind Dir. Hi Hi Dir Heat Index Bar Rain Rain Rate Solar Rad. Solar Energy UV Index Hi UV
2023Dec12 00:00 20.3 20.1 20.5  71.0 14.8 1.6 ESE 9.7 ESE 20.6 28.51 0.0 0.0 0 0.0 0.0 0.0
2023Dec12 01:00 19.4 19.2 20.1  73.0 14.4 1.6 NE 6.4 NNE 19.7 28.49 0.0 0.0 0 0.0 0.0 0.0
2023Dec12 02:00 19.7 19.3 19.9  71.0 14.3 0.0 ESE 8.0 SE 20.1 28.48 0.0 0.0 0 0.0 0.0 0.0
2023Dec12 03:00 19.6 19.4 19.8  71.0 14.2 1.6 ESE 11.3 E 19.8 28.47 0.0 0.0 0 0.0 0.0 0.0
2023Dec12 04:00 18.8 18.4 19.4  74.0 14.1 1.6 NE 8.0 NE 19.1 28.47 0.0 0.0 0 0.0 0.0 0.0
2023Dec12 05:00 18.3 17.9 19.0  71.0 13.0 1.6 NNE 9.7 ESE 18.4 28.49 0.0 0.0 0 0.0 0.0 0.0
2023Dec12 06:00 19.1 19.0 19.2  70.0 13.5 1.6 E 9.7 E 19.2 28.51 0.0 0.0 8 0.69 0.0 0.0
2023Dec12 07:00 19.8 19.2 20.3  68.0 13.8 4.8 SE 16.1 SE 20.1 28.53 0.0 0.0 115 9.89 0.0 0.0
2023Dec12 08:00 20.9 20.2 22.0  64.0 13.8 6.4 SE 16.1 SE 20.7 28.54 0.0 0.0 302 25.98 0.5 1.0
2023Dec12 09:00 22.8 22.0 23.8  59.0 14.4 4.8 SE 17.7 SSE 23.0 28.55 0.0 0.0 424 36.47 1.4 1.9
2023Dec12 10:00 24.5 23.8 25.1  56.0 15.1 3.2 SE 14.5 SE 24.7 28.53 0.0 0.0 657 56.51 2.3 2.7
2023Dec12 11:00 25.1 24.5 25.4  51.0 14.2 4.8 NNE 19.3 NNE 25.0 28.50 0.0 0.0 749 64.42 2.9 3.1
2023Dec12 12:00 26.0 25.3 26.8  49.0 14.5 4.8 N 19.3 N 26.1 28.46 0.0 0.0 765 65.8 3.0 3.1
2023Dec12 13:00 26.3 25.9 27.3  46.0 13.8 6.4 NNE 17.7 N 26.2 28.43 0.0 0.0 712 61.24 2.6 2.9
2023Dec12 14:00 27.2 26.8 27.4  45.0 14.2 3.2 NNE 17.7 NNE 26.9 28.42 0.0 0.0 582 50.06 1.7 2.2
2023Dec12 15:00 27.1 26.7 27.6  44.0 13.8 3.2 NNE 14.5 NNE 26.8 28.41 0.0 0.0 384 33.03 0.8 1.3
2023Dec12 16:00 26.6 25.9 27.3  45.0 13.6 1.6 E 11.3 NNE 26.3 28.42 0.0 0.0 167 14.36 0.0 0.5
2023Dec12 17:00 24.6 23.6 26.0  56.0 15.2 3.2 E 12.9 E 24.8 28.43 0.0 0.0 23 1.98 0.0 0.0
2023Dec12 18:00 22.9 22.5 23.6  61.0 15.0 3.2 E 11.3 ESE 23.3 28.46 0.0 0.0 0 0.0 0.0 0.0
2023Dec12 19:00 22.4 22.2 22.5  64.0 15.2 3.2 SE 12.9 E 22.6 28.49 0.0 0.0 0 0.0 0.0 0.0
2023Dec12 20:00 22.2 22.1 22.3  63.0 14.8 8.0 SE 16.1 SE 22.2 28.51 0.0 0.0 0 0.0 0.0 0.0
2023Dec12 21:00 22.0 21.7 22.2  65.0 15.1 8.0 SE 17.7 SE 22.1 28.52 0.0 0.0 0 0.0 0.0 0.0
2023Dec12 22:00 21.6 21.3 21.7  64.0 14.5 9.7 SE 17.7 SE 21.4 28.51 0.0 0.0 0 0.0 0.0 0.0
2023Dec12 23:00 20.2 19.3 21.3  74.0 15.4 1.6 ENE 12.9 SE 20.7 28.51 0.0 0.0 0 0.0 0.0 0.0
Total: 0.0